createdAt,value
2017-03-02T00:00:20.250Z,78.91
2017-03-02T00:01:00.860Z,78.62
2017-03-02T00:01:41.445Z,78.91
2017-03-02T00:02:22.052Z,78.91
2017-03-02T00:03:02.644Z,78.91
2017-03-02T00:03:43.261Z,78.91
2017-03-02T00:04:23.845Z,78.91
2017-03-02T00:05:04.417Z,78.81
2017-03-02T00:05:45.012Z,78.62
2017-03-02T00:06:25.594Z,78.24
2017-03-02T00:07:06.175Z,78.24
2017-03-02T00:07:46.823Z,78.72
2017-03-02T00:08:27.394Z,78.91
2017-03-02T00:09:07.988Z,78.72
2017-03-02T00:09:48.554Z,78.81
2017-03-02T00:10:29.117Z,78.91
2017-03-02T00:11:09.684Z,78.91
2017-03-02T00:11:50.273Z,79.1
2017-03-02T00:12:30.851Z,79.1
2017-03-02T00:13:11.425Z,78.91
2017-03-02T00:13:52.014Z,79.1
2017-03-02T00:14:32.592Z,78.91
2017-03-02T00:15:13.184Z,78.85
2017-03-02T00:15:53.755Z,78.72
2017-03-02T00:16:34.338Z,78.91
2017-03-02T00:17:14.919Z,78.91
2017-03-02T00:17:55.506Z,78.72
2017-03-02T00:18:36.105Z,78.72
2017-03-02T00:19:16.698Z,78.95
2017-03-02T00:19:57.262Z,78.85
2017-03-02T00:20:37.868Z,78.72
2017-03-02T00:21:18.476Z,78.75
2017-03-02T00:21:59.057Z,78.95
2017-03-02T00:22:39.611Z,78.24
2017-03-02T00:23:20.191Z,78.15
2017-03-02T00:24:00.775Z,78.43
2017-03-02T00:24:41.404Z,78.91
2017-03-02T00:25:21.978Z,78.91
2017-03-02T00:26:02.577Z,78.91
2017-03-02T00:26:43.181Z,78.72
2017-03-02T00:27:23.756Z,78.81
2017-03-02T00:28:04.729Z,78.72
2017-03-02T00:28:45.316Z,79.38
2017-03-02T00:29:25.895Z,78.91
2017-03-02T00:30:06.482Z,78.81
2017-03-02T00:30:47.046Z,79.1
2017-03-02T00:31:27.633Z,78.91
2017-03-02T00:32:08.213Z,79.19
2017-03-02T00:32:48.791Z,78.91
2017-03-02T00:33:29.356Z,78.91
2017-03-02T00:34:09.964Z,78.91
2017-03-02T00:34:50.550Z,78.81
2017-03-02T00:35:31.125Z,78.91
2017-03-02T00:36:11.710Z,78.81
2017-03-02T00:36:52.278Z,78.91
2017-03-02T00:37:32.856Z,79
2017-03-02T00:38:13.444Z,78.62
2017-03-02T00:38:54.020Z,79
2017-03-02T00:39:34.607Z,78.81
2017-03-02T00:40:15.217Z,79.04
2017-03-02T00:40:55.846Z,79
2017-03-02T00:41:36.423Z,79.19
2017-03-02T00:42:17.011Z,79
2017-03-02T00:42:57.606Z,78.91
2017-03-02T00:43:38.186Z,79
2017-03-02T00:44:18.769Z,79.19
2017-03-02T00:44:59.379Z,79
2017-03-02T00:45:39.967Z,78.91
2017-03-02T00:46:20.586Z,79.38
2017-03-02T00:47:01.182Z,79.47
2017-03-02T00:47:41.760Z,79.28
2017-03-02T00:48:22.335Z,79.28
2017-03-02T00:49:02.915Z,79.57
2017-03-02T00:49:43.483Z,79.57
2017-03-02T00:50:24.054Z,78.91
2017-03-02T00:51:04.639Z,78.91
2017-03-02T00:51:45.208Z,79.04
2017-03-02T00:52:25.813Z,79
2017-03-02T00:53:06.381Z,79.28
2017-03-02T00:53:46.956Z,79.57
2017-03-02T00:54:27.537Z,78.91
2017-03-02T00:55:08.113Z,78.85
2017-03-02T00:55:48.694Z,79.14
2017-03-02T00:56:29.284Z,79.14
2017-03-02T00:57:09.859Z,79
2017-03-02T00:57:50.454Z,79
2017-03-02T00:58:31.032Z,79
2017-03-02T00:59:11.601Z,78.91
2017-03-02T00:59:52.181Z,79.57
2017-03-02T01:00:32.757Z,79.57
2017-03-02T01:01:13.341Z,79.38
2017-03-02T01:01:53.907Z,79.28
2017-03-02T01:02:34.474Z,79.66
2017-03-02T01:03:15.058Z,79.28
2017-03-02T01:03:55.618Z,79.38
2017-03-02T01:04:36.199Z,79.66
2017-03-02T01:05:16.765Z,79.57
2017-03-02T01:05:57.331Z,79.57
2017-03-02T01:06:37.926Z,79.28
2017-03-02T01:07:18.552Z,79.38
2017-03-02T01:07:59.125Z,79.57
2017-03-02T01:08:39.700Z,79.76
2017-03-02T01:09:20.275Z,79
2017-03-02T01:10:00.849Z,79
2017-03-02T01:10:43.990Z,78.62
2017-03-02T01:11:24.581Z,79.76
2017-03-02T01:12:05.160Z,79.57
2017-03-02T01:12:45.719Z,79.38
2017-03-02T01:13:26.282Z,79
2017-03-02T01:14:06.873Z,79
2017-03-02T01:14:47.438Z,78.81
2017-03-02T01:15:28.013Z,78.81
2017-03-02T01:16:08.593Z,79.66
2017-03-02T01:16:49.175Z,79.28
2017-03-02T01:17:29.813Z,79.66
2017-03-02T01:18:10.411Z,79.57
2017-03-02T01:18:50.990Z,79.66
2017-03-02T01:19:31.561Z,80.04
2017-03-02T01:20:12.146Z,80.14
2017-03-02T01:20:52.717Z,80.33
2017-03-02T01:21:33.289Z,80.43
2017-03-02T01:22:13.867Z,80.52
2017-03-02T01:22:54.475Z,80.24
2017-03-02T01:23:35.072Z,80.33
2017-03-02T01:24:15.655Z,80.52
2017-03-02T01:24:56.242Z,80.33
2017-03-02T01:25:36.813Z,80.52
2017-03-02T01:26:17.395Z,80.24
2017-03-02T01:26:57.958Z,80.14
2017-03-02T01:27:38.530Z,80.04
2017-03-02T01:28:19.091Z,80.43
2017-03-02T01:28:59.658Z,80.33
2017-03-02T01:29:40.249Z,80.24
2017-03-02T01:30:20.846Z,80.33
2017-03-02T01:31:01.425Z,80.04
2017-03-02T01:31:42.001Z,80.24
2017-03-02T01:32:22.588Z,79.85
2017-03-02T01:33:03.191Z,79.95
2017-03-02T01:33:43.791Z,80.14
2017-03-02T01:34:24.355Z,80.14
2017-03-02T01:35:04.932Z,79.76
2017-03-02T01:35:45.517Z,80.24
2017-03-02T01:36:26.089Z,80.14
2017-03-02T01:37:06.677Z,80.24
2017-03-02T01:37:47.260Z,80.04
2017-03-02T01:38:27.840Z,79.76
2017-03-02T01:39:08.429Z,79.76
2017-03-02T01:39:48.994Z,79.95
2017-03-02T01:40:29.590Z,79.76
2017-03-02T01:41:10.151Z,80.04
2017-03-02T01:41:50.734Z,79.85
2017-03-02T01:42:31.295Z,80.04
2017-03-02T01:43:11.866Z,80.04
2017-03-02T01:43:52.453Z,79.85
2017-03-02T01:44:33.028Z,80.14
2017-03-02T01:45:13.599Z,79.85
2017-03-02T01:45:54.201Z,80.04
2017-03-02T01:46:34.791Z,80.04
2017-03-02T01:47:15.364Z,80.04
2017-03-02T01:47:55.972Z,79.76
2017-03-02T01:48:36.547Z,80.14
2017-03-02T01:49:17.120Z,80.43
2017-03-02T01:49:57.690Z,80.33
2017-03-02T01:50:38.284Z,80.24
2017-03-02T01:51:18.862Z,80.24
2017-03-02T01:51:59.429Z,80.04
2017-03-02T01:52:40.004Z,80.52
2017-03-02T01:53:20.610Z,80.24
2017-03-02T01:54:01.192Z,80.8
2017-03-02T01:54:41.766Z,80.33
2017-03-02T01:55:22.381Z,80.33
2017-03-02T01:56:02.948Z,80.43
2017-03-02T01:56:43.537Z,80.62
2017-03-02T01:57:24.129Z,80.24
2017-03-02T01:58:04.700Z,80.24
2017-03-02T01:58:45.285Z,80.24
2017-03-02T01:59:25.850Z,80.14
2017-03-02T02:00:06.427Z,80.24
2017-03-02T02:00:47.029Z,80.71
2017-03-02T02:01:27.616Z,80.43
2017-03-02T02:02:08.193Z,80.9
2017-03-02T02:02:48.786Z,80.24
2017-03-02T02:03:29.373Z,80.24
2017-03-02T02:04:09.995Z,80.24
2017-03-02T02:04:50.606Z,80.52
2017-03-02T02:05:31.165Z,80.52
2017-03-02T02:06:11.746Z,80.43
2017-03-02T02:06:52.325Z,80.62
2017-03-02T02:07:32.921Z,80.71
2017-03-02T02:08:13.508Z,80.24
2017-03-02T02:08:54.085Z,80.24
2017-03-02T02:09:34.690Z,80.62
2017-03-02T02:10:15.275Z,80.14
2017-03-02T02:10:55.868Z,80.43
2017-03-02T02:11:36.468Z,80.52
2017-03-02T02:12:17.048Z,80.43
2017-03-02T02:12:57.634Z,80.52
2017-03-02T02:13:38.196Z,80.43
2017-03-02T02:14:18.793Z,80.84
2017-03-02T02:14:59.376Z,80.84
2017-03-02T02:15:39.953Z,80.18
2017-03-02T02:16:20.546Z,80.04
2017-03-02T02:17:01.137Z,80.14
2017-03-02T02:17:41.737Z,80.62
2017-03-02T02:18:22.319Z,80.24
2017-03-02T02:19:02.939Z,80.99
2017-03-02T02:19:43.527Z,81.18
2017-03-02T02:20:24.101Z,81.09
2017-03-02T02:21:04.711Z,80.9
2017-03-02T02:21:45.303Z,80.43
2017-03-02T02:22:25.881Z,80.9
2017-03-02T02:23:06.455Z,80.71
2017-03-02T02:23:47.037Z,80.99
2017-03-02T02:24:27.672Z,80.8
2017-03-02T02:25:08.255Z,80.8
2017-03-02T02:25:48.861Z,80.71
2017-03-02T02:26:29.422Z,80.8
2017-03-02T02:27:09.984Z,80.99
2017-03-02T02:27:50.561Z,80.9
2017-03-02T02:28:31.161Z,80.9
2017-03-02T02:29:11.740Z,81.09
2017-03-02T02:29:52.310Z,80.99
2017-03-02T02:30:32.901Z,81.09
2017-03-02T02:31:13.510Z,81.09
2017-03-02T02:31:54.095Z,80.71
2017-03-02T02:32:34.676Z,80.71
2017-03-02T02:33:15.280Z,80.43
2017-03-02T02:33:55.847Z,80.9
2017-03-02T02:34:36.423Z,81.18
2017-03-02T02:35:17.022Z,81.09
2017-03-02T02:35:57.640Z,81.66
2017-03-02T02:36:38.212Z,81.85
2017-03-02T02:37:18.803Z,81.09
2017-03-02T02:37:59.380Z,81.09
2017-03-02T02:38:39.952Z,81.18
2017-03-02T02:39:20.532Z,81.18
2017-03-02T02:40:01.101Z,80.99
2017-03-02T02:40:41.658Z,80.8
2017-03-02T02:41:22.287Z,81.47
2017-03-02T02:42:02.864Z,81.37
2017-03-02T02:42:43.452Z,81.37
2017-03-02T02:43:24.031Z,81.18
2017-03-02T02:44:04.611Z,81.85
2017-03-02T02:44:45.192Z,81.41
2017-03-02T02:45:25.763Z,81.27
2017-03-02T02:46:06.336Z,81.37
2017-03-02T02:46:46.900Z,81.66
2017-03-02T02:47:27.494Z,81.51
2017-03-02T02:48:08.092Z,81.79
2017-03-02T02:48:48.688Z,81.6
2017-03-02T02:49:29.245Z,81.41
2017-03-02T02:50:09.853Z,81.6
2017-03-02T02:50:50.436Z,81.51
2017-03-02T02:51:31.018Z,81.51
2017-03-02T02:52:11.601Z,81.51
2017-03-02T02:52:52.195Z,81.6
2017-03-02T02:53:32.780Z,81.79
2017-03-02T02:54:13.344Z,81.47
2017-03-02T02:54:53.950Z,81.51
2017-03-02T02:55:34.523Z,81.79
2017-03-02T02:56:15.111Z,81.6
2017-03-02T02:56:55.690Z,81.32
2017-03-02T02:57:36.261Z,81.51
2017-03-02T02:58:16.845Z,81.6
2017-03-02T02:58:57.408Z,81.32
2017-03-02T02:59:37.990Z,81.41
2017-03-02T03:00:18.578Z,81.32
2017-03-02T03:00:59.145Z,81.51
2017-03-02T03:01:39.729Z,81.7
2017-03-02T03:02:20.302Z,81.51
2017-03-02T03:03:00.890Z,81.04
2017-03-02T03:03:41.483Z,81.04
2017-03-02T03:04:22.062Z,81.23
2017-03-02T03:05:02.646Z,81.23
2017-03-02T03:05:43.254Z,81.23
2017-03-02T03:06:23.835Z,81.13
2017-03-02T03:07:04.430Z,81.04
2017-03-02T03:07:45.012Z,80.94
2017-03-02T03:08:25.609Z,81.04
2017-03-02T03:09:06.189Z,81.13
2017-03-02T03:09:46.815Z,81.23
2017-03-02T03:10:27.381Z,81.13
2017-03-02T03:11:07.957Z,80.84
2017-03-02T03:11:48.574Z,81.32
2017-03-02T03:12:29.232Z,81.32
2017-03-02T03:13:09.859Z,81.32
2017-03-02T03:13:50.430Z,81.13
2017-03-02T03:14:31.001Z,81.04
2017-03-02T03:15:11.569Z,81.04
2017-03-02T03:15:52.159Z,81.04
2017-03-02T03:16:32.751Z,81.7
2017-03-02T03:17:13.329Z,81.7
2017-03-02T03:17:53.912Z,81.6
2017-03-02T03:18:34.490Z,81.7
2017-03-02T03:19:15.063Z,81.88
2017-03-02T03:19:55.636Z,81.51
2017-03-02T03:20:36.226Z,81.6
2017-03-02T03:21:16.796Z,81.7
2017-03-02T03:21:57.368Z,81.7
2017-03-02T03:22:37.951Z,81.32
2017-03-02T03:23:18.531Z,81.6
2017-03-02T03:23:59.114Z,81.6
2017-03-02T03:24:39.692Z,81.79
2017-03-02T03:25:20.280Z,81.6
2017-03-02T03:26:00.865Z,82.08
2017-03-02T03:26:41.436Z,82.08
2017-03-02T03:27:22.050Z,81.98
2017-03-02T03:28:02.618Z,82.36
2017-03-02T03:28:43.196Z,82.36
2017-03-02T03:29:23.779Z,82.36
2017-03-02T03:30:04.357Z,82.36
2017-03-02T03:30:44.936Z,82.55
2017-03-02T03:31:25.531Z,82.74
2017-03-02T03:32:06.100Z,82.55
2017-03-02T03:32:46.664Z,82.36
2017-03-02T03:33:27.246Z,81.88
2017-03-02T03:34:07.826Z,82.65
2017-03-02T03:34:48.426Z,82.17
2017-03-02T03:35:29.001Z,82.46
2017-03-02T03:36:09.595Z,82.46
2017-03-02T03:36:50.180Z,82.74
2017-03-02T03:37:30.782Z,82.27
2017-03-02T03:38:11.383Z,82.74
2017-03-02T03:38:51.994Z,82.65
2017-03-02T03:39:32.575Z,82.36
2017-03-02T03:40:13.192Z,81.88
2017-03-02T03:40:53.766Z,82.93
2017-03-02T03:41:34.338Z,82.65
2017-03-02T03:42:14.905Z,82.27
2017-03-02T03:42:55.476Z,82.65
2017-03-02T03:43:36.046Z,82.84
2017-03-02T03:44:16.632Z,82.27
2017-03-02T03:44:57.235Z,82.74
2017-03-02T03:45:37.814Z,82.27
2017-03-02T03:46:18.397Z,82.74
2017-03-02T03:46:58.969Z,82.46
2017-03-02T03:47:39.574Z,82.08
2017-03-02T03:48:20.151Z,82.27
2017-03-02T03:49:00.774Z,82.65
2017-03-02T03:49:41.333Z,82.65
2017-03-02T03:50:21.930Z,82.55
2017-03-02T03:51:02.586Z,82.74
2017-03-02T03:51:43.188Z,82.93
2017-03-02T03:52:23.763Z,82.93
2017-03-02T03:53:04.344Z,82.84
2017-03-02T03:53:44.928Z,82.46
2017-03-02T03:54:25.549Z,82.55
2017-03-02T03:55:06.132Z,82.36
2017-03-02T03:55:46.757Z,82.65
2017-03-02T03:56:27.332Z,83.22
2017-03-02T03:57:07.912Z,82.93
2017-03-02T03:57:48.490Z,82.93
2017-03-02T03:58:29.088Z,83.22
2017-03-02T03:59:09.651Z,83.4
2017-03-02T03:59:50.228Z,83.22
2017-03-02T04:00:30.789Z,83.5
2017-03-02T04:01:11.371Z,83.59
2017-03-02T04:01:51.947Z,82.93
2017-03-02T04:02:32.532Z,83.12
2017-03-02T04:03:13.143Z,82.93
2017-03-02T04:03:53.729Z,83.12
2017-03-02T04:04:34.308Z,83.03
2017-03-02T04:05:14.880Z,83.03
2017-03-02T04:05:55.454Z,83.31
2017-03-02T04:06:36.052Z,83.22
2017-03-02T04:07:16.629Z,83.22
2017-03-02T04:07:57.202Z,83.4
2017-03-02T04:08:37.785Z,83.31
2017-03-02T04:09:18.396Z,83.22
2017-03-02T04:09:59.101Z,83.22
2017-03-02T04:10:39.707Z,83.4
2017-03-02T04:11:20.286Z,83.31
2017-03-02T04:12:00.872Z,83.31
2017-03-02T04:12:41.441Z,83.03
2017-03-02T04:13:22.022Z,83.4
2017-03-02T04:14:02.609Z,83.22
2017-03-02T04:14:43.179Z,83.22
2017-03-02T04:15:23.758Z,83.31
2017-03-02T04:16:04.426Z,83.5
2017-03-02T04:16:44.971Z,83.5
2017-03-02T04:17:25.552Z,83.5
2017-03-02T04:18:06.135Z,83.5
2017-03-02T04:18:46.729Z,83.78
2017-03-02T04:19:27.329Z,83.69
2017-03-02T04:20:07.910Z,83.78
2017-03-02T04:20:48.580Z,84.17
2017-03-02T04:21:29.139Z,84.17
2017-03-02T04:22:09.729Z,84.17
2017-03-02T04:22:50.308Z,83.88
2017-03-02T04:23:30.883Z,83.97
2017-03-02T04:24:11.469Z,83.59
2017-03-02T04:24:52.096Z,83.59
2017-03-02T04:25:32.704Z,83.69
2017-03-02T04:26:13.271Z,83.78
2017-03-02T04:26:53.854Z,83.88
2017-03-02T04:27:34.441Z,83.59
2017-03-02T04:28:15.044Z,83.5
2017-03-02T04:28:55.598Z,83.5
2017-03-02T04:29:36.161Z,83.78
2017-03-02T04:30:16.748Z,83.5
2017-03-02T04:30:57.326Z,83.5
2017-03-02T04:31:37.908Z,83.4
2017-03-02T04:32:18.572Z,83.59
2017-03-02T04:32:59.091Z,83.4
2017-03-02T04:33:39.686Z,83.69
2017-03-02T04:34:20.260Z,83.78
2017-03-02T04:35:00.826Z,83.88
2017-03-02T04:35:41.396Z,83.59
2017-03-02T04:36:21.974Z,83.59
2017-03-02T04:37:02.558Z,83.59
2017-03-02T04:37:43.127Z,84.26
2017-03-02T04:38:23.725Z,84.17
2017-03-02T04:39:04.315Z,83.97
2017-03-02T04:39:44.910Z,83.97
2017-03-02T04:40:25.638Z,83.88
2017-03-02T04:41:06.223Z,84.17
2017-03-02T04:41:46.843Z,84.07
2017-03-02T04:42:27.414Z,83.97
2017-03-02T04:43:08.023Z,84.36
2017-03-02T04:43:48.590Z,83.88
2017-03-02T04:44:29.198Z,84.36
2017-03-02T04:45:09.740Z,84.07
2017-03-02T04:45:50.342Z,83.88
2017-03-02T04:46:30.944Z,83.88
2017-03-02T04:47:11.507Z,84.17
2017-03-02T04:47:52.072Z,84.17
2017-03-02T04:48:32.686Z,84.36
2017-03-02T04:49:13.257Z,84.36
2017-03-02T04:49:53.869Z,84.17
2017-03-02T04:50:34.458Z,84.26
2017-03-02T04:51:15.035Z,84.45
2017-03-02T04:51:55.607Z,84.26
2017-03-02T04:52:36.184Z,84.17
2017-03-02T04:53:16.762Z,83.97
2017-03-02T04:53:57.393Z,83.97
2017-03-02T04:54:38.881Z,83.97
2017-03-02T04:55:19.459Z,84.45
2017-03-02T04:57:07.226Z,83.97
2017-03-02T04:57:47.817Z,84.36
2017-03-02T04:58:28.415Z,83.88
2017-03-02T04:59:09.002Z,84.36
2017-03-02T04:59:49.577Z,84.36
2017-03-02T05:00:30.171Z,84.55
2017-03-02T05:01:10.742Z,84.4
2017-03-02T05:01:51.337Z,84.55
2017-03-02T05:02:31.936Z,84.45
2017-03-02T05:03:12.564Z,84.64
2017-03-02T05:03:53.148Z,84.78
2017-03-02T05:04:33.742Z,85.02
2017-03-02T05:05:14.333Z,84.74
2017-03-02T05:05:54.916Z,84.68
2017-03-02T05:06:35.533Z,85.16
2017-03-02T05:07:16.120Z,85.11
2017-03-02T05:07:56.737Z,84.78
2017-03-02T05:08:37.325Z,84.68
2017-03-02T05:09:17.935Z,84.87
2017-03-02T05:09:58.510Z,85.16
2017-03-02T05:10:39.109Z,85.06
2017-03-02T05:11:19.688Z,85.06
2017-03-02T05:12:00.357Z,85.25
2017-03-02T05:12:40.966Z,85.35
2017-03-02T05:13:21.555Z,85.53
2017-03-02T05:14:02.169Z,85.53
2017-03-02T05:14:42.783Z,85.53
2017-03-02T05:15:23.381Z,85.53
2017-03-02T05:16:03.960Z,85.53
2017-03-02T05:18:09.871Z,85.35
2017-03-02T05:18:50.482Z,85.63
2017-03-02T05:19:31.112Z,86.01
2017-03-02T05:20:11.660Z,86.3
2017-03-02T05:20:52.245Z,86.2
2017-03-02T05:21:32.841Z,86.3
2017-03-02T05:22:13.458Z,86.11
2017-03-02T05:22:54.016Z,86.58
2017-03-02T05:23:34.626Z,86.39
2017-03-02T05:24:15.243Z,86.39
2017-03-02T05:24:55.841Z,86.58
2017-03-02T05:25:36.426Z,86.39
2017-03-02T05:26:17.294Z,86.96
2017-03-02T05:26:57.946Z,86.77
2017-03-02T05:27:38.549Z,86.58
2017-03-02T05:28:19.162Z,86.68
2017-03-02T05:28:59.752Z,86.77
2017-03-02T05:29:40.361Z,86.68
2017-03-02T05:30:20.956Z,86.68
2017-03-02T05:31:01.533Z,86.68
2017-03-02T05:31:42.121Z,87.34
2017-03-02T05:32:22.724Z,87.53
2017-03-02T05:33:03.322Z,87.53
2017-03-02T05:33:43.931Z,87.15
2017-03-02T05:34:24.518Z,87.05
2017-03-02T05:35:05.122Z,87.15
2017-03-02T05:35:45.730Z,87.05
2017-03-02T05:36:26.370Z,86.87
2017-03-02T05:37:06.973Z,86.87
2017-03-02T05:37:47.636Z,87.15
2017-03-02T05:38:28.231Z,87.34
2017-03-02T05:39:08.860Z,86.87
2017-03-02T05:39:49.447Z,87.15
2017-03-02T05:40:30.759Z,86.96
2017-03-02T05:41:11.342Z,87.24
2017-03-02T05:41:51.939Z,87.15
2017-03-02T05:42:32.540Z,86.87
2017-03-02T05:43:13.123Z,86.87
2017-03-02T05:43:53.771Z,87.05
2017-03-02T05:44:34.441Z,86.87
2017-03-02T05:45:15.042Z,87.05
2017-03-02T05:45:55.661Z,87.05
2017-03-02T05:46:36.247Z,87.24
2017-03-02T05:47:16.832Z,87.34
2017-03-02T05:47:57.456Z,87.05
2017-03-02T05:48:38.039Z,87.05
2017-03-02T05:49:18.707Z,87.05
2017-03-02T05:49:59.292Z,87.24
2017-03-02T05:50:39.995Z,87.05
2017-03-02T05:51:20.569Z,87.24
2017-03-02T05:52:01.170Z,87.24
2017-03-02T05:52:41.791Z,86.87
2017-03-02T05:53:22.383Z,87.05
2017-03-02T05:54:03.026Z,87.43
2017-03-02T05:54:43.605Z,87.53
2017-03-02T05:55:24.205Z,87.43
2017-03-02T05:56:04.803Z,87.24
2017-03-02T05:56:45.383Z,87.24
2017-03-02T05:57:26.064Z,86.96
2017-03-02T05:58:06.686Z,87.24
2017-03-02T05:58:47.288Z,87.24
2017-03-02T05:59:27.928Z,87.05
2017-03-02T06:00:08.545Z,87.05
2017-03-02T06:00:49.149Z,86.96
2017-03-02T06:01:29.730Z,87.15
2017-03-02T06:02:10.348Z,87.15
2017-03-02T06:02:50.942Z,87.05
2017-03-02T06:03:31.517Z,87.34
2017-03-02T06:04:12.224Z,86.87
2017-03-02T06:04:52.704Z,86.87
2017-03-02T06:05:33.539Z,87.15
2017-03-02T06:06:14.177Z,86.87
2017-03-02T06:06:54.876Z,87.15
2017-03-02T06:07:35.529Z,87.24
2017-03-02T06:08:16.157Z,86.87
2017-03-02T06:08:56.872Z,87.34
2017-03-02T06:09:37.488Z,87.34
2017-03-02T06:10:18.093Z,87.24
2017-03-02T06:10:58.715Z,87.34
2017-03-02T06:11:39.345Z,87.34
2017-03-02T06:12:19.976Z,87.24
2017-03-02T06:13:00.545Z,87.43
2017-03-02T06:13:41.139Z,87.53
2017-03-02T06:14:21.713Z,87.43
2017-03-02T06:15:02.304Z,87.91
2017-03-02T06:15:42.900Z,87.53
2017-03-02T06:16:23.492Z,87.43
2017-03-02T06:17:04.119Z,87.72
2017-03-02T06:17:44.716Z,87.62
2017-03-02T06:18:25.319Z,87.72
2017-03-02T06:19:05.953Z,87.72
2017-03-02T06:19:46.571Z,87.53
2017-03-02T06:20:27.181Z,87.43
2017-03-02T06:21:07.778Z,87.24
2017-03-02T06:21:48.394Z,87.53
2017-03-02T06:22:28.998Z,87.53
2017-03-02T06:23:09.621Z,87.62
2017-03-02T06:23:50.208Z,87.53
2017-03-02T06:24:30.801Z,87.43
2017-03-02T06:25:11.405Z,87.53
2017-03-02T06:25:51.992Z,87.62
2017-03-02T06:26:32.655Z,87.91
2017-03-02T06:27:13.229Z,87.91
2017-03-02T06:27:53.803Z,87.91
2017-03-02T06:28:34.456Z,87.43
2017-03-02T06:29:15.086Z,87.15
2017-03-02T06:29:55.806Z,87.53
2017-03-02T06:30:36.406Z,87.43
2017-03-02T06:31:17.006Z,87.34
2017-03-02T06:31:57.700Z,87.82
2017-03-02T06:32:38.408Z,87.82
2017-03-02T06:33:18.971Z,87.1
2017-03-02T06:33:59.546Z,87.15
2017-03-02T06:34:40.160Z,87.24
2017-03-02T06:35:20.778Z,87.24
2017-03-02T06:36:01.399Z,87.24
2017-03-02T06:36:42.012Z,87.34
2017-03-02T06:37:22.633Z,87.43
2017-03-02T06:38:03.261Z,87.72
2017-03-02T06:38:43.885Z,87.43
2017-03-02T06:39:24.464Z,87.34
2017-03-02T06:40:05.042Z,87.24
2017-03-02T06:40:45.617Z,87.53
2017-03-02T06:41:26.225Z,87.82
2017-03-02T06:42:06.885Z,88.62
2017-03-02T06:42:47.491Z,88.05
2017-03-02T06:43:28.087Z,88.34
2017-03-02T06:44:08.666Z,88.62
2017-03-02T06:44:49.243Z,88.43
2017-03-02T06:45:29.889Z,87.48
2017-03-02T06:46:10.494Z,87.38
2017-03-02T06:46:51.090Z,87.24
2017-03-02T06:47:31.732Z,86.86
2017-03-02T06:48:12.353Z,85.34
2017-03-02T06:48:52.976Z,84.77
2017-03-02T06:49:33.623Z,84.1
2017-03-02T06:50:14.351Z,83.91
2017-03-02T06:50:54.970Z,83.34
2017-03-02T06:51:35.643Z,83
2017-03-02T06:52:16.301Z,82.87
2017-03-02T06:52:56.925Z,82.43
2017-03-02T06:53:37.515Z,82.34
2017-03-02T06:54:19.894Z,81.38
2017-03-02T06:55:01.457Z,81.29
2017-03-02T06:55:42.127Z,81.1
2017-03-02T06:56:22.762Z,80.91
2017-03-02T06:57:03.388Z,80.72
2017-03-02T06:57:43.961Z,80.34
2017-03-02T06:58:24.654Z,80.24
2017-03-02T06:59:05.375Z,79.68
2017-03-02T06:59:46.067Z,79.01
2017-03-02T07:00:26.687Z,79.01
2017-03-02T07:01:07.283Z,78.91
2017-03-02T07:01:47.929Z,79.01
2017-03-02T07:02:28.549Z,79.2
2017-03-02T07:03:09.295Z,80.24
2017-03-02T07:03:49.844Z,80.24
2017-03-02T07:04:30.549Z,80.96
2017-03-02T07:05:11.289Z,81.16
2017-03-02T07:05:54.598Z,81.82
2017-03-02T07:06:35.264Z,81.82
2017-03-02T07:07:15.878Z,82.39
2017-03-02T07:07:56.481Z,82.2
2017-03-02T07:08:43.980Z,82.2
2017-03-02T07:09:24.576Z,82.29
2017-03-02T07:10:05.159Z,82.77
2017-03-02T07:10:45.771Z,82.58
2017-03-02T07:11:26.481Z,82.87
2017-03-02T07:12:07.024Z,82.87
2017-03-02T07:12:47.685Z,82.96
2017-03-02T07:13:28.284Z,82.96
2017-03-02T07:14:08.915Z,83.15
2017-03-02T07:14:49.561Z,83.15
2017-03-02T07:15:30.177Z,83.15
2017-03-02T07:16:10.779Z,83.06
2017-03-02T07:16:51.421Z,83.62
2017-03-02T07:17:31.996Z,83.25
2017-03-02T07:18:12.605Z,83.34
2017-03-02T07:18:53.194Z,83.62
2017-03-02T07:19:33.868Z,83.15
2017-03-02T07:20:14.514Z,83.34
2017-03-02T07:20:55.175Z,83.44
2017-03-02T07:21:35.782Z,83.62
2017-03-02T07:22:16.401Z,83.44
2017-03-02T07:22:56.993Z,83.44
2017-03-02T07:23:37.610Z,83.34
2017-03-02T07:24:18.283Z,83.34
2017-03-02T07:24:58.876Z,83.44
2017-03-02T07:25:39.492Z,83.44
2017-03-02T07:26:20.065Z,83.44
2017-03-02T07:27:00.691Z,83.15
2017-03-02T07:27:41.405Z,83.34
2017-03-02T07:28:22.242Z,83.34
2017-03-02T07:29:02.771Z,83.53
2017-03-02T07:29:43.434Z,83.44
2017-03-02T07:30:24.045Z,83.25
2017-03-02T07:31:04.649Z,83.53
2017-03-02T07:31:45.247Z,83.72
2017-03-02T07:32:25.855Z,83.72
2017-03-02T07:33:06.457Z,83.44
2017-03-02T07:33:47.038Z,83.34
2017-03-02T07:34:27.622Z,83.53
2017-03-02T07:35:08.230Z,83.25
2017-03-02T07:35:48.816Z,83.34
2017-03-02T07:36:29.414Z,83.44
2017-03-02T07:37:10.060Z,83.15
2017-03-02T07:37:50.658Z,82.87
2017-03-02T07:38:31.246Z,83.06
2017-03-02T07:39:11.862Z,83.53
2017-03-02T07:39:52.467Z,83.25
2017-03-02T07:40:33.077Z,82.39
2017-03-02T07:41:13.668Z,82.68
2017-03-02T07:41:54.262Z,82.96
2017-03-02T07:42:34.854Z,82.49
2017-03-02T07:43:15.483Z,82.49
2017-03-02T07:43:56.122Z,82.49
2017-03-02T07:44:36.729Z,83.06
2017-03-02T07:45:17.341Z,82.96
2017-03-02T07:45:57.947Z,82.87
2017-03-02T07:46:38.621Z,82.58
2017-03-02T07:47:19.274Z,82.29
2017-03-02T07:47:59.909Z,82.29
2017-03-02T07:48:40.503Z,82.96
2017-03-02T07:49:21.326Z,82.2
2017-03-02T07:50:01.942Z,82.58
2017-03-02T07:50:42.549Z,82.58
2017-03-02T07:51:23.661Z,82.39
2017-03-02T07:52:04.222Z,82.49
2017-03-02T07:52:44.847Z,83.15
2017-03-02T07:53:25.442Z,82.39
2017-03-02T07:54:06.035Z,82.39
2017-03-02T07:54:46.604Z,82.77
2017-03-02T07:55:27.186Z,82.01
2017-03-02T07:56:07.801Z,82.1
2017-03-02T07:56:48.378Z,82.87
2017-03-02T07:57:28.949Z,82.68
2017-03-02T07:58:09.542Z,82.77
2017-03-02T07:58:50.131Z,82.49
2017-03-02T07:59:30.728Z,82.77
2017-03-02T08:00:11.356Z,82.77
2017-03-02T08:00:51.965Z,82.29
2017-03-02T08:01:32.575Z,82.77
2017-03-02T08:02:13.165Z,82.39
2017-03-02T08:02:53.781Z,82.49
2017-03-02T08:03:34.386Z,82.49
2017-03-02T08:04:14.978Z,82.96
2017-03-02T08:04:55.543Z,82.49
2017-03-02T08:05:36.120Z,82.96
2017-03-02T08:06:16.686Z,82.77
2017-03-02T08:06:57.292Z,82.96
2017-03-02T08:07:37.867Z,82.68
2017-03-02T08:08:18.458Z,83.06
2017-03-02T08:08:59.050Z,82.87
2017-03-02T08:09:39.624Z,83.34
2017-03-02T08:10:20.229Z,83.91
2017-03-02T08:11:00.829Z,83.82
2017-03-02T08:11:41.444Z,84.48
2017-03-02T08:12:22.023Z,84.95
2017-03-02T08:13:02.622Z,85.15
2017-03-02T08:13:43.255Z,85.15
2017-03-02T08:14:23.864Z,85.62
2017-03-02T08:15:04.476Z,85.43
2017-03-02T08:15:45.070Z,85.62
2017-03-02T08:16:25.651Z,85.43
2017-03-02T08:17:06.234Z,85.05
2017-03-02T08:17:46.860Z,85.05
2017-03-02T08:18:27.414Z,84.82
2017-03-02T08:19:07.993Z,85.34
2017-03-02T08:19:48.588Z,85.15
2017-03-02T08:20:29.177Z,85.15
2017-03-02T08:21:09.755Z,85.3
2017-03-02T08:21:50.355Z,84.72
2017-03-02T08:22:31.061Z,83.87
2017-03-02T08:23:11.684Z,84.44
2017-03-02T08:23:52.294Z,84.72
2017-03-02T08:24:32.916Z,84.91
2017-03-02T08:25:13.561Z,84.53
2017-03-02T08:25:54.180Z,84.44
2017-03-02T08:26:34.767Z,85.11
2017-03-02T08:27:15.367Z,85.3
2017-03-02T08:27:55.956Z,85.11
2017-03-02T08:28:36.544Z,84.53
2017-03-02T08:29:17.169Z,84.44
2017-03-02T08:29:57.734Z,84.63
2017-03-02T08:30:38.691Z,84.44
2017-03-02T08:31:19.279Z,84.72
2017-03-02T08:31:59.866Z,84.82
2017-03-02T08:32:40.442Z,85.11
2017-03-02T08:33:21.031Z,85.39
2017-03-02T08:34:01.641Z,85.58
2017-03-02T08:34:42.230Z,85.49
2017-03-02T08:35:22.823Z,85.3
2017-03-02T08:36:03.424Z,85.49
2017-03-02T08:36:44.042Z,85.58
2017-03-02T08:37:24.654Z,84.25
2017-03-02T08:38:05.248Z,83.68
2017-03-02T08:38:45.834Z,83.26
2017-03-02T08:39:26.412Z,83.64
2017-03-02T08:40:07.019Z,83.87
2017-03-02T08:40:47.589Z,83.54
2017-03-02T08:41:28.176Z,83.3
2017-03-02T08:42:08.770Z,83.64
2017-03-02T08:42:49.376Z,83.16
2017-03-02T08:43:30.025Z,82.4
2017-03-02T08:44:10.618Z,82.97
2017-03-02T08:44:51.198Z,82.69
2017-03-02T08:45:31.813Z,82.78
2017-03-02T08:46:12.443Z,82.4
2017-03-02T08:46:53.173Z,82.69
2017-03-02T08:47:33.908Z,82.59
2017-03-02T08:48:14.530Z,82.4